Time;durP1;ratioP1;P1;durP2;ratioP2;P2;SDS_P1;SDS_P2;PMS_P1;PMS_P2;Temp;Humidity;BMP_temperature;BMP_pressure;BME280_temperature;BME280_humidity;BME280_pressure;Samples;Min_cycle;Max_cycle;Signal;HPM_P1;HPM_P2
2022/05/01 00:00:56;;;;;;;22.95;15.80;;;2.40;99.90;;;;;;5017338;28;20041;-82
2022/05/01 00:03:36;;;;;;;22.10;13.75;;;2.40;99.90;;;;;;5044339;22;20058;-85
2022/05/01 00:06:11;;;;;;;25.70;18.03;;;2.40;99.90;;;;;;4981600;28;20052;-85
2022/05/01 00:08:39;;;;;;;25.83;19.13;;;3.20;99.90;;;;;;4998680;28;20677;-85
2022/05/01 00:11:05;;;;;;;24.98;17.40;;;2.40;99.90;;;;;;4996071;28;20073;-85
2022/05/01 00:13:31;;;;;;;24.53;17.13;;;2.30;99.90;;;;;;4995478;28;20065;-85
2022/05/01 00:15:57;;;;;;;25.00;15.95;;;2.30;99.90;;;;;;4998376;28;20164;-85
2022/05/01 00:18:23;;;;;;;25.93;16.67;;;2.20;99.90;;;;;;4996338;28;20043;-85
2022/05/01 00:20:49;;;;;;;23.50;16.67;;;2.70;99.90;;;;;;4995805;28;20092;-85
2022/05/01 00:23:15;;;;;;;22.20;16.30;;;2.20;99.90;;;;;;4981684;28;20962;-85
2022/05/01 00:25:42;;;;;;;23.70;17.23;;;2.20;99.90;;;;;;4995013;28;20511;-85
2022/05/01 00:28:12;;;;;;;22.23;16.02;;;2.10;99.90;;;;;;4997725;28;20046;-85
2022/05/01 00:30:40;;;;;;;23.55;15.80;;;2.50;99.90;;;;;;4994852;28;20140;-78
2022/05/01 00:38:35;;;;;;;24.33;16.23;;;2.00;99.90;;;;;;4994419;28;20389;-77
2022/05/01 00:41:04;;;;;;;27.60;17.40;;;2.00;99.90;;;;;;5012146;28;20034;-78
2022/05/01 00:43:31;;;;;;;23.93;17.73;;;2.90;99.90;;;;;;4994731;28;20049;-78
2022/05/01 00:45:56;;;;;;;24.23;16.83;;;2.00;99.90;;;;;;4995227;28;20041;-85
2022/05/01 00:48:22;;;;;;;25.83;16.40;;;1.90;99.90;;;;;;5005154;28;20042;-85
2022/05/01 00:50:48;;;;;;;24.27;17.37;;;1.90;99.90;;;;;;4985072;28;20033;-85
2022/05/01 00:53:14;;;;;;;23.70;16.73;;;1.80;99.90;;;;;;4979878;28;20046;-85
2022/05/01 00:55:40;;;;;;;21.20;15.20;;;1.70;99.90;;;;;;4980617;28;20066;-85
2022/05/01 00:58:07;;;;;;;21.77;14.13;;;2.00;99.90;;;;;;4982030;28;20136;-85
2022/05/01 01:00:34;;;;;;;22.60;16.15;;;1.60;99.90;;;;;;4996667;28;20050;-85
2022/05/01 01:03:00;;;;;;;25.90;16.33;;;1.60;99.90;;;;;;4979024;28;20092;-78
2022/05/01 01:05:26;;;;;;;23.70;15.93;;;1.60;99.90;;;;;;5022081;28;20048;-78
2022/05/01 01:07:52;;;;;;;27.03;17.27;;;1.60;99.90;;;;;;4998028;28;20038;-78
2022/05/01 01:10:19;;;;;;;24.00;16.37;;;1.50;99.90;;;;;;5013886;28;20042;-77
2022/05/01 01:12:54;;;;;;;22.03;14.87;;;1.50;99.90;;;;;;5009053;28;20040;-77
2022/05/01 01:15:25;;;;;;;25.37;16.77;;;1.50;99.90;;;;;;5002048;28;20080;-77
2022/05/01 01:17:54;;;;;;;23.60;16.03;;;2.00;99.90;;;;;;4996866;28;20407;-77
2022/05/01 01:20:25;;;;;;;22.43;15.50;;;1.40;99.90;;;;;;5016676;28;20068;-78
2022/05/01 01:22:54;;;;;;;21.10;14.50;;;1.40;99.90;;;;;;4998880;28;20069;-78
2022/05/01 01:25:29;;;;;;;21.63;15.47;;;1.40;99.90;;;;;;5000811;28;20048;-78
2022/05/01 01:28:02;;;;;;;22.67;15.87;;;1.40;99.90;;;;;;5001418;28;20052;-78
2022/05/01 01:33:15;;;;;;;24.30;15.02;;;1.30;99.90;;;;;;5005182;28;20107;-78
2022/05/01 01:35:41;;;;;;;21.80;15.20;;;0.40;99.90;;;;;;5008360;28;20487;-88
2022/05/01 01:38:07;;;;;;;24.53;16.50;;;1.20;99.90;;;;;;5012616;28;20048;-87
2022/05/01 01:41:02;;;;;;;24.33;16.10;;;1.20;99.90;;;;;;5011142;28;20049;-88
2022/05/01 01:43:29;;;;;;;23.10;16.20;;;1.30;99.90;;;;;;4995348;28;20487;-88
2022/05/01 01:45:58;;;;;;;21.30;15.60;;;1.20;99.90;;;;;;5013493;28;20547;-88
2022/05/01 01:48:24;;;;;;;25.70;16.37;;;1.20;99.90;;;;;;4999078;28;20041;-88
2022/05/01 01:51:04;;;;;;;23.03;16.53;;;1.20;99.90;;;;;;5011416;28;20072;-88
2022/05/01 01:53:31;;;;;;;21.47;15.30;;;1.00;99.90;;;;;;5018012;28;20131;-78
2022/05/01 01:55:58;;;;;;;23.77;15.10;;;1.90;99.90;;;;;;4986466;28;20060;-78
2022/05/01 01:58:25;;;;;;;23.17;16.27;;;1.00;99.90;;;;;;5004583;28;20424;-78
2022/05/01 02:00:51;;;;;;;26.30;16.27;;;1.00;99.90;;;;;;5002618;28;20045;-78
2022/05/01 02:03:17;;;;;;;22.70;15.83;;;0.80;99.90;;;;;;5002251;28;20136;-78
2022/05/01 02:05:44;;;;;;;22.07;15.97;;;1.00;99.90;;;;;;5004321;28;20033;-78
2022/05/01 02:08:10;;;;;;;22.93;16.03;;;0.80;99.90;;;;;;5000323;28;20037;-78
2022/05/01 02:10:36;;;;;;;24.73;16.13;;;1.00;99.90;;;;;;5003289;28;20517;-77
2022/05/01 02:13:03;;;;;;;25.00;17.03;;;1.00;99.90;;;;;;5019678;28;20144;-77
2022/05/01 02:15:33;;;;;;;24.17;15.70;;;0.90;99.90;;;;;;4985375;28;20403;-77
2022/05/01 02:18:00;;;;;;;25.13;16.70;;;1.00;99.90;;;;;;5003437;28;20049;-77
2022/05/01 02:20:27;;;;;;;25.53;16.03;;;0.90;99.90;;;;;;5002069;28;20124;-77
2022/05/01 02:22:54;;;;;;;24.67;17.27;;;0.90;99.90;;;;;;5001718;28;20041;-77
2022/05/01 02:25:23;;;;;;;28.03;17.73;;;1.10;99.90;;;;;;5005065;28;20542;-88
2022/05/01 02:27:49;;;;;;;25.43;17.70;;;0.90;99.90;;;;;;4996313;28;21004;-88
2022/05/01 02:30:16;;;;;;;28.70;17.40;;;1.20;99.90;;;;;;5007841;28;20029;-88
2022/05/01 02:32:42;;;;;;;24.00;17.40;;;1.30;99.90;;;;;;5012983;28;20048;-88
2022/05/01 02:35:09;;;;;;;26.70;17.53;;;0.90;99.90;;;;;;4993253;28;20042;-88
2022/05/01 02:37:35;;;;;;;29.73;18.87;;;0.90;99.90;;;;;;4996456;28;20033;-88
2022/05/01 02:40:02;;;;;;;25.43;17.33;;;1.00;99.90;;;;;;5003238;28;20044;-88
2022/05/01 02:42:28;;;;;;;29.40;19.40;;;1.20;99.90;;;;;;5006590;28;20041;-84
2022/05/01 02:44:54;;;;;;;27.70;18.33;;;1.00;99.90;;;;;;5012722;28;20440;-84
2022/05/01 02:47:19;;;;;;;29.40;19.43;;;1.00;99.90;;;;;;5011198;28;20100;-84
2022/05/01 02:49:46;;;;;;;28.37;17.77;;;0.90;99.90;;;;;;5011525;28;20041;-84
2022/05/01 02:52:14;;;;;;;26.30;16.80;;;0.90;99.90;;;;;;4994965;28;20037;-84
2022/05/01 02:54:40;;;;;;;23.50;16.67;;;0.80;99.90;;;;;;5011127;28;20034;-84
2022/05/01 02:57:06;;;;;;;26.63;17.47;;;0.80;99.90;;;;;;5009040;28;20063;-84
2022/05/01 02:59:32;;;;;;;24.50;17.60;;;0.50;99.90;;;;;;5004482;28;20088;-78
2022/05/01 03:01:58;;;;;;;23.37;17.67;;;0.30;99.90;;;;;;5000881;28;20483;-78
2022/05/01 03:04:24;;;;;;;25.70;16.37;;;0.60;99.90;;;;;;5000961;28;20061;-78
2022/05/01 03:06:50;;;;;;;26.60;17.17;;;0.60;99.90;;;;;;5003650;28;20045;-78
2022/05/01 03:09:15;;;;;;;25.93;17.50;;;0.70;99.90;;;;;;4984755;28;20083;-78
2022/05/01 03:11:41;;;;;;;26.00;17.77;;;0.70;99.90;;;;;;5016379;28;20079;-78
2022/05/01 03:14:09;;;;;;;28.87;17.80;;;0.60;99.90;;;;;;4966069;28;20068;-78
2022/05/01 03:16:35;;;;;;;27.27;17.90;;;-0.30;99.90;;;;;;4991292;28;20045;-84
2022/05/01 03:24:30;;;;;;;26.40;16.90;;;0.70;99.90;;;;;;5010451;28;20130;-84
2022/05/01 03:26:56;;;;;;;28.70;18.93;;;0.60;99.90;;;;;;5010822;28;20063;-84
2022/05/01 03:29:22;;;;;;;25.67;18.13;;;0.60;99.90;;;;;;4975525;28;20076;-84
2022/05/01 03:31:50;;;;;;;24.87;17.90;;;0.40;99.90;;;;;;5008493;28;20080;-84
2022/05/01 03:34:17;;;;;;;25.97;16.80;;;0.70;99.90;;;;;;4977891;28;20099;-85
2022/05/01 03:36:44;;;;;;;23.73;16.33;;;1.10;99.90;;;;;;5010290;28;20550;-84
2022/05/01 03:39:11;;;;;;;29.23;17.70;;;0.40;99.90;;;;;;4995163;28;20052;-84
2022/05/01 03:41:38;;;;;;;28.77;16.93;;;0.40;99.90;;;;;;5009875;28;20076;-84
2022/05/01 03:44:04;;;;;;;27.83;17.50;;;0.40;99.90;;;;;;5011988;28;20116;-84
2022/05/01 03:46:30;;;;;;;26.77;18.50;;;0.50;99.90;;;;;;5009154;28;20038;-84
2022/05/01 03:48:57;;;;;;;27.73;19.30;;;0.50;99.90;;;;;;4991596;28;20034;-76
2022/05/01 03:51:23;;;;;;;31.33;18.30;;;0.50;99.90;;;;;;5002289;28;20452;-77
2022/05/01 03:53:49;;;;;;;28.07;17.53;;;0.50;99.90;;;;;;4998847;28;20156;-77
2022/05/01 03:56:15;;;;;;;25.47;17.50;;;0.30;99.90;;;;;;4999214;28;20044;-77
2022/05/01 03:58:43;;;;;;;24.30;17.00;;;0.60;99.90;;;;;;5001326;28;20047;-77
2022/05/01 04:01:09;;;;;;;23.63;16.03;;;2.10;99.90;;;;;;4983492;28;20038;-77
2022/05/01 04:03:35;;;;;;;26.20;17.57;;;0.20;99.90;;;;;;4979150;28;20641;-77
2022/05/01 04:06:00;;;;;;;27.23;17.30;;;-0.40;99.90;;;;;;4997829;28;20049;-77
2022/05/01 04:08:26;;;;;;;30.10;19.23;;;0.40;99.90;;;;;;4981062;28;20571;-77
2022/05/01 04:10:52;;;;;;;28.20;17.97;;;1.70;99.90;;;;;;4997163;28;20164;-77
2022/05/01 04:13:18;;;;;;;24.03;17.20;;;0.30;99.90;;;;;;4997876;28;20091;-77
2022/05/01 04:15:44;;;;;;;24.40;16.83;;;0.30;99.90;;;;;;4997046;28;20050;-77
2022/05/01 04:18:10;;;;;;;26.90;18.23;;;0.30;99.90;;;;;;4997896;28;20396;-77
2022/05/01 04:20:39;;;;;;;29.03;17.63;;;0.50;99.90;;;;;;4996304;28;20045;-77
2022/05/01 04:23:06;;;;;;;29.20;18.00;;;0.40;99.90;;;;;;4984712;28;20069;-84
2022/05/01 04:25:33;;;;;;;25.43;17.30;;;-1.40;99.90;;;;;;5004931;28;20046;-84
2022/05/01 04:28:11;;;;;;;25.17;15.87;;;0.30;99.90;;;;;;5006355;28;20037;-84
2022/05/01 04:30:40;;;;;;;25.37;17.23;;;0.30;99.90;;;;;;5005331;28;20120;-84
2022/05/01 04:33:13;;;;;;;25.80;17.83;;;0.40;99.90;;;;;;5006582;28;20037;-84
2022/05/01 04:35:42;;;;;;;26.27;17.13;;;0.30;99.90;;;;;;5005595;28;20046;-84
2022/05/01 04:38:17;;;;;;;24.40;17.27;;;0.50;99.90;;;;;;4990269;28;20046;-84
2022/05/01 04:41:03;;;;;;;26.23;17.50;;;-0.20;99.90;;;;;;4996704;28;20041;-77
2022/05/01 04:43:31;;;;;;;23.80;17.30;;;2.20;99.90;;;;;;5001767;28;20424;-77
2022/05/01 04:45:58;;;;;;;23.17;17.13;;;0.70;99.90;;;;;;4998320;28;20041;-77
2022/05/01 04:48:25;;;;;;;26.07;18.03;;;0.80;99.90;;;;;;4995597;28;20491;-77
2022/05/01 04:50:51;;;;;;;27.80;18.80;;;;;;;;;;4980893;28;20452;-77
2022/05/01 04:53:19;;;;;;;27.83;18.83;;;1.00;99.90;;;;;;4979608;28;20045;-77
2022/05/01 04:55:46;;;;;;;27.60;18.43;;;1.10;99.90;;;;;;4982861;28;20123;-88
2022/05/01 04:58:15;;;;;;;28.33;18.80;;;1.20;99.90;;;;;;4974165;28;20061;-88
2022/05/01 05:00:41;;;;;;;29.43;18.17;;;1.40;99.90;;;;;;5006223;28;20061;-87
2022/05/01 05:03:07;;;;;;;31.90;18.20;;;1.60;99.90;;;;;;5008249;28;20040;-87
2022/05/01 05:05:36;;;;;;;25.75;17.63;;;1.80;99.90;;;;;;4984218;28;20492;-87
2022/05/01 05:10:48;;;;;;;29.80;17.77;;;0.80;99.90;;;;;;5003509;28;20049;-88
2022/05/01 05:13:16;;;;;;;26.50;17.70;;;2.50;99.90;;;;;;5002082;28;20050;-85
2022/05/01 05:15:42;;;;;;;25.63;17.52;;;2.70;99.90;;;;;;4969767;28;20042;-84
2022/05/01 05:18:08;;;;;;;22.42;16.05;;;2.90;99.90;;;;;;4969775;28;20504;-84
2022/05/01 05:20:33;;;;;;;23.40;15.73;;;2.90;99.90;;;;;;4979533;28;20057;-84
2022/05/01 05:23:02;;;;;;;21.73;15.55;;;3.00;99.90;;;;;;4976307;28;20464;-84
2022/05/01 05:25:29;;;;;;;23.50;16.63;;;3.40;99.90;;;;;;4961169;28;20134;-84
2022/05/01 05:27:55;;;;;;;20.48;14.82;;;3.10;99.90;;;;;;4961973;28;20046;-85
2022/05/01 05:30:20;;;;;;;17.85;14.00;;;3.20;99.90;;;;;;4942532;28;20046;-84
2022/05/01 05:32:46;;;;;;;18.08;13.80;;;3.30;99.90;;;;;;4962136;28;20061;-84
2022/05/01 05:35:12;;;;;;;17.67;14.02;;;3.40;99.90;;;;;;4974502;28;20035;-83
2022/05/01 05:37:38;;;;;;;17.92;13.60;;;3.60;99.90;;;;;;4960403;28;20432;-83
2022/05/01 05:40:04;;;;;;;16.30;12.60;;;4.00;99.90;;;;;;4956278;28;21832;-83
2022/05/01 05:42:30;;;;;;;17.10;14.20;;;4.00;99.90;;;;;;4973915;28;20049;-83
2022/05/01 05:44:55;;;;;;;16.13;13.82;;;4.00;99.90;;;;;;4976285;28;20046;-83
2022/05/01 05:47:21;;;;;;;16.40;14.07;;;4.20;99.90;;;;;;4960660;28;20523;-79
2022/05/01 05:49:47;;;;;;;16.33;14.20;;;4.30;99.90;;;;;;4959560;28;20397;-79
2022/05/01 05:52:12;;;;;;;16.00;13.50;;;4.60;99.90;;;;;;4960710;28;20050;-79
2022/05/01 05:54:39;;;;;;;18.33;13.80;;;4.80;99.90;;;;;;4992011;28;20062;-79
2022/05/01 05:57:05;;;;;;;14.82;12.90;;;6.10;99.90;;;;;;4961424;28;20081;-79
2022/05/01 05:59:30;;;;;;;14.52;11.98;;;5.60;99.90;;;;;;4975348;28;20054;-79
2022/05/01 06:01:56;;;;;;;13.40;12.00;;;6.50;99.90;;;;;;4962545;28;20141;-88
2022/05/01 06:04:22;;;;;;;13.25;11.27;;;7.10;99.90;;;;;;5024587;23;20052;-85
2022/05/01 06:06:48;;;;;;;13.68;9.98;;;7.80;99.90;;;;;;5039606;28;20128;-85
2022/05/01 06:09:14;;;;;;;10.38;9.25;;;8.40;99.90;;;;;;5017905;28;20041;-85
2022/05/01 06:11:39;;;;;;;11.00;9.30;;;9.00;99.90;;;;;;5035686;28;20119;-85
2022/05/01 06:14:05;;;;;;;9.80;8.73;;;9.20;99.90;;;;;;5036575;28;20040;-84
2022/05/01 06:16:33;;;;;;;10.80;8.55;;;9.20;99.90;;;;;;5040536;28;20040;-85
2022/05/01 06:18:59;;;;;;;11.45;8.68;;;9.40;99.90;;;;;;5019639;28;20087;-88
2022/05/01 06:21:25;;;;;;;9.48;8.35;;;9.70;99.90;;;;;;5017310;28;20045;-88
2022/05/01 06:23:51;;;;;;;9.43;8.30;;;10.00;99.90;;;;;;5004974;28;20037;-88
2022/05/01 06:26:18;;;;;;;8.75;7.65;;;10.70;99.90;;;;;;5038391;28;20540;-87
2022/05/01 06:28:43;;;;;;;9.50;7.65;;;10.90;99.90;;;;;;5053868;28;20045;-87
2022/05/01 06:31:10;;;;;;;8.68;7.20;;;11.30;99.90;;;;;;5003496;28;20090;-88
2022/05/01 06:33:36;;;;;;;8.48;6.72;;;11.70;99.90;;;;;;5039457;28;20079;-87
2022/05/01 06:36:03;;;;;;;8.02;7.22;;;11.80;99.90;;;;;;5015282;28;20080;-85
2022/05/01 06:38:29;;;;;;;7.97;6.70;;;12.20;99.90;;;;;;5037830;28;20041;-85
2022/05/01 06:40:55;;;;;;;11.25;7.35;;;12.40;99.90;;;;;;5020161;28;20041;-85
2022/05/01 06:43:21;;;;;;;8.15;6.18;;;13.20;99.90;;;;;;5010432;28;20045;-86
2022/05/01 06:45:48;;;;;;;7.85;5.93;;;13.80;99.90;;;;;;5037632;28;20482;-86
2022/05/01 06:48:14;;;;;;;8.27;5.75;;;13.80;99.90;;;;;;5042333;28;20051;-86
2022/05/01 06:50:40;;;;;;;8.82;5.88;;;13.90;99.90;;;;;;5040066;28;20382;-85
2022/05/01 06:53:07;;;;;;;7.40;5.82;;;13.60;99.90;;;;;;5016356;28;20126;-79
2022/05/01 06:55:33;;;;;;;8.38;6.10;;;14.30;99.90;;;;;;5034653;28;20056;-80
2022/05/01 06:57:58;;;;;;;6.53;5.07;;;14.50;99.90;;;;;;5016143;28;20061;-79
2022/05/01 07:00:24;;;;;;;8.35;5.53;;;14.60;99.90;;;;;;5034243;28;20039;-79
2022/05/01 07:02:54;;;;;;;7.15;5.55;;;15.20;99.90;;;;;;5051965;28;20075;-80
2022/05/01 07:05:21;;;;;;;8.98;5.68;;;15.40;99.90;;;;;;5036631;28;20083;-80
2022/05/01 07:07:51;;;;;;;7.10;5.60;;;15.30;99.90;;;;;;5001854;28;20037;-80
2022/05/01 07:10:20;;;;;;;7.28;6.22;;;15.30;99.90;;;;;;4999736;28;20736;-87
2022/05/01 07:12:46;;;;;;;8.02;5.03;;;15.70;99.90;;;;;;5032362;28;20040;-89
2022/05/01 07:15:12;;;;;;;7.35;5.13;;;16.10;99.90;;;;;;5031871;28;20043;-88
2022/05/01 07:17:38;;;;;;;6.55;4.90;;;16.40;99.90;;;;;;5036999;28;20037;-88
2022/05/01 07:20:04;;;;;;;6.32;4.60;;;16.50;99.90;;;;;;5000741;28;20060;-89
2022/05/01 07:22:30;;;;;;;5.72;4.43;;;16.70;99.90;;;;;;5035283;28;20073;-88
2022/05/01 07:24:56;;;;;;;8.57;5.13;;;16.90;99.80;;;;;;5037300;28;20439;-88
2022/05/01 07:27:22;;;;;;;6.63;5.20;;;17.00;99.00;;;;;;5018288;28;20045;-80
2022/05/01 07:29:48;;;;;;;7.47;4.93;;;17.30;98.40;;;;;;5039084;28;20048;-80
2022/05/01 07:32:14;;;;;;;7.28;5.53;;;17.30;97.50;;;;;;5031047;28;20418;-80
2022/05/01 07:34:40;;;;;;;6.65;5.32;;;17.70;97.40;;;;;;5026276;28;20040;-80
2022/05/01 07:37:06;;;;;;;9.38;5.78;;;18.00;97.00;;;;;;5019139;28;20055;-80
2022/05/01 07:39:32;;;;;;;7.47;5.00;;;18.20;95.10;;;;;;5034255;28;20151;-80
2022/05/01 07:41:58;;;;;;;7.47;5.00;;;17.90;95.30;;;;;;5016339;28;20055;-79
2022/05/01 07:44:24;;;;;;;7.35;5.13;;;16.90;93.50;;;;;;5019935;28;20214;-80
2022/05/01 07:46:53;;;;;;;7.30;4.85;;;17.00;95.50;;;;;;5035369;28;20047;-80
2022/05/01 07:49:20;;;;;;;6.00;4.65;;;17.20;95.70;;;;;;5038480;28;20049;-80
2022/05/01 07:51:46;;;;;;;6.75;5.30;;;17.30;93.30;;;;;;5053150;28;20562;-80
2022/05/01 07:54:12;;;;;;;6.53;4.63;;;17.80;90.90;;;;;;5036539;28;20048;-80
2022/05/01 07:56:38;;;;;;;7.32;5.05;;;17.80;92.00;;;;;;5041005;28;20048;-79
2022/05/01 07:59:04;;;;;;;6.22;5.13;;;17.50;92.30;;;;;;5052612;28;20044;-80
2022/05/01 08:01:30;;;;;;;8.95;5.40;;;17.70;92.50;;;;;;5036601;28;20394;-80
2022/05/01 08:06:40;;;;;;;8.65;5.22;;;18.70;92.40;;;;;;5017058;28;20041;-80
2022/05/01 08:09:06;;;;;;;6.80;4.63;;;18.90;89.30;;;;;;5038991;28;20029;-80
2022/05/01 08:11:32;;;;;;;6.55;4.72;;;18.50;80.90;;;;;;5039168;28;20376;-81
2022/05/01 08:13:58;;;;;;;8.75;4.88;;;19.20;85.90;;;;;;5033055;28;20052;-81
2022/05/01 08:16:24;;;;;;;7.30;5.00;;;19.60;83.40;;;;;;5040315;28;20076;-88
2022/05/01 08:21:36;;;;;;;6.75;4.35;;;19.30;81.60;;;;;;5045490;28;20045;-89
2022/05/01 08:24:03;;;;;;;7.90;4.93;;;19.30;83.00;;;;;;5029454;28;20048;-89
2022/05/01 08:26:31;;;;;;;6.97;4.32;;;19.90;82.40;;;;;;5044520;28;20037;-89
2022/05/01 08:28:57;;;;;;;7.43;4.80;;;20.20;78.10;;;;;;5058129;28;20036;-89
2022/05/01 08:31:24;;;;;;;6.65;4.85;;;19.80;74.50;;;;;;5041648;28;20398;-89
2022/05/01 08:33:50;;;;;;;7.85;5.13;;;19.60;74.50;;;;;;5042819;28;20876;-90
2022/05/01 08:36:15;;;;;;;6.75;4.50;;;19.90;74.40;;;;;;5024813;28;20060;-88
2022/05/01 08:38:42;;;;;;;6.18;4.22;;;20.40;75.40;;;;;;5023121;28;20112;-88
2022/05/01 08:41:08;;;;;;;6.88;4.50;;;20.20;71.10;;;;;;5041691;28;20045;-88
2022/05/01 08:43:35;;;;;;;7.90;5.13;;;19.60;72.70;;;;;;5011761;28;20124;-88
2022/05/01 08:46:22;;;;;;;5.93;4.10;;;19.00;71.90;;;;;;5028347;28;20368;-88
2022/05/01 08:49:06;;;;;;;7.30;4.60;;;19.10;72.10;;;;;;5027707;28;20116;-80
2022/05/01 08:51:39;;;;;;;7.75;4.28;;;19.00;71.90;;;;;;5035863;28;20168;-81
2022/05/01 08:54:16;;;;;;;6.55;4.65;;;18.80;72.70;;;;;;5034933;28;20083;-80
2022/05/01 08:56:43;;;;;;;7.22;4.80;;;18.90;74.30;;;;;;5052229;28;20060;-80
2022/05/01 08:59:12;;;;;;;6.22;4.80;;;18.30;70.90;;;;;;5036371;28;21628;-80
2022/05/01 09:01:39;;;;;;;8.73;4.75;;;18.10;74.30;;;;;;5049597;28;20045;-80
2022/05/01 09:04:06;;;;;;;7.85;5.10;;;17.90;76.70;;;;;;5034976;28;20459;-80
2022/05/01 09:06:40;;;;;;;7.43;4.93;;;17.70;75.90;;;;;;5059571;28;20090;-87
2022/05/01 09:09:10;;;;;;;6.18;4.90;;;17.30;76.20;;;;;;5042120;28;20040;-88
2022/05/01 09:14:25;;;;;;;7.03;4.72;;;17.10;76.80;;;;;;5044859;28;20128;-89
2022/05/01 09:17:15;;;;;;;8.52;4.75;;;17.30;78.60;;;;;;5059639;28;20045;-88
2022/05/01 09:19:42;;;;;;;8.23;5.30;;;17.40;77.00;;;;;;5045691;28;20072;-88
2022/05/01 09:22:08;;;;;;;8.00;4.93;;;17.30;79.60;;;;;;5040775;28;20045;-87
2022/05/01 09:24:34;;;;;;;9.18;5.13;;;17.10;79.70;;;;;;5041529;28;20047;-88
2022/05/01 09:27:00;;;;;;;9.48;5.38;;;16.70;79.20;;;;;;5045343;28;20116;-88
2022/05/01 09:29:37;;;;;;;6.35;4.55;;;16.20;78.20;;;;;;5040838;28;20049;-88
2022/05/01 09:32:04;;;;;;;6.80;4.70;;;16.50;79.70;;;;;;5040804;28;20045;-88
2022/05/01 09:34:33;;;;;;;7.15;4.95;;;16.90;80.80;;;;;;5042743;28;20059;-87
2022/05/01 09:37:17;;;;;;;7.28;4.90;;;16.80;77.10;;;;;;5039889;28;20037;-88
2022/05/01 09:39:48;;;;;;;5.88;4.40;;;18.00;77.30;;;;;;5041644;28;20051;-87
2022/05/01 09:42:17;;;;;;;7.75;4.95;;;19.30;73.00;;;;;;5040391;28;20490;-86
2022/05/01 09:44:43;;;;;;;8.02;4.80;;;19.40;68.70;;;;;;5040534;28;20073;-88
2022/05/01 09:47:09;;;;;;;7.35;4.50;;;19.90;68.10;;;;;;5040716;28;20580;-87
2022/05/01 09:49:50;;;;;;;6.22;4.47;;;19.30;68.40;;;;;;5060242;28;20147;-87
2022/05/01 09:52:19;;;;;;;11.98;4.75;;;19.10;70.20;;;;;;5047505;28;20045;-87
2022/05/01 09:55:07;;;;;;;5.63;4.28;;;18.90;72.40;;;;;;5031027;28;20049;-87
2022/05/01 09:57:33;;;;;;;6.90;4.38;;;19.70;72.50;;;;;;5045259;28;20140;-85
2022/05/01 09:59:58;;;;;;;5.68;4.07;;;20.40;70.70;;;;;;5047852;28;20186;-84
2022/05/01 10:02:30;;;;;;;5.25;3.22;;;20.50;70.90;;;;;;5028360;28;20045;-84
2022/05/01 10:05:06;;;;;;;5.78;4.03;;;20.30;64.80;;;;;;5011115;28;20065;-85
2022/05/01 10:07:38;;;;;;;7.85;4.05;;;18.70;65.90;;;;;;5043360;28;20074;-84
2022/05/01 10:10:08;;;;;;;7.50;4.30;;;17.70;69.10;;;;;;5045013;28;20127;-86
2022/05/01 10:12:41;;;;;;;7.18;4.22;;;17.30;71.20;;;;;;5041041;28;20094;-80
2022/05/01 10:15:08;;;;;;;5.35;3.70;;;17.30;71.10;;;;;;5031301;28;20122;-80
2022/05/01 10:17:37;;;;;;;5.43;4.30;;;17.80;73.00;;;;;;5036361;28;20047;-80
2022/05/01 10:20:03;;;;;;;6.68;4.03;;;16.50;71.50;;;;;;5019597;28;20051;-80
2022/05/01 10:22:32;;;;;;;5.88;4.25;;;16.10;74.80;;;;;;5022732;28;20045;-79
2022/05/01 10:24:57;;;;;;;5.75;4.00;;;16.40;74.60;;;;;;5036339;28;20043;-79
2022/05/01 10:27:49;;;;;;;6.85;4.70;;;16.50;73.90;;;;;;5015082;28;20033;-79
2022/05/01 10:33:37;;;;;;;6.07;4.10;;;17.60;70.80;;;;;;5032902;28;20049;-80
2022/05/01 10:36:30;;;;;;;5.22;3.80;;;19.10;69.30;;;;;;5036903;28;20045;-80
2022/05/01 10:39:09;;;;;;;7.25;3.97;;;20.40;61.50;;;;;;5034354;28;20052;-79
2022/05/01 10:41:43;;;;;;;8.18;4.30;;;20.20;65.30;;;;;;5040054;28;20060;-79
2022/05/01 10:44:25;;;;;;;6.05;4.30;;;20.90;62.50;;;;;;5038911;28;20037;-79
2022/05/01 10:46:54;;;;;;;5.20;3.75;;;21.00;62.60;;;;;;5040308;28;20064;-80
2022/05/01 10:49:35;;;;;;;6.70;3.80;;;22.90;63.80;;;;;;5036719;28;20037;-79
2022/05/01 10:52:21;;;;;;;5.05;3.78;;;22.10;58.70;;;;;;5061883;28;20037;-80
2022/05/01 10:55:14;;;;;;;6.45;4.00;;;20.80;61.10;;;;;;5076232;28;20084;-80
2022/05/01 10:57:39;;;;;;;6.13;3.70;;;20.50;62.50;;;;;;5049862;28;20048;-80
2022/05/01 11:00:08;;;;;;;6.38;4.45;;;20.10;62.20;;;;;;5041700;28;20399;-80
2022/05/01 11:02:43;;;;;;;5.30;3.90;;;19.50;63.50;;;;;;5031197;28;20160;-81
2022/05/01 11:05:11;;;;;;;6.97;4.55;;;19.10;63.80;;;;;;5041985;28;20056;-80
2022/05/01 11:07:39;;;;;;;5.45;4.50;;;18.80;66.20;;;;;;5027240;28;20574;-80
2022/05/01 11:10:09;;;;;;;4.80;4.07;;;18.40;66.70;;;;;;5040419;28;20037;-80
2022/05/01 11:12:38;;;;;;;7.95;4.47;;;18.50;66.80;;;;;;5054662;28;20056;-80
2022/05/01 11:15:06;;;;;;;8.48;4.40;;;18.60;65.40;;;;;;5039910;28;20393;-81
2022/05/01 11:17:39;;;;;;;5.50;4.00;;;19.40;68.30;;;;;;5036250;28;20044;-81
2022/05/01 11:20:26;;;;;;;5.38;3.38;;;20.70;64.00;;;;;;5051235;28;20103;-80
2022/05/01 11:22:52;;;;;;;5.00;3.80;;;21.30;62.50;;;;;;5057367;28;20533;-79
2022/05/01 11:25:38;;;;;;;6.60;3.85;;;21.70;63.40;;;;;;5055616;28;20107;-80
2022/05/01 11:28:07;;;;;;;4.32;3.45;;;20.80;61.50;;;;;;5039644;28;20041;-80
2022/05/01 11:30:35;;;;;;;5.30;3.63;;;20.40;61.50;;;;;;5037926;28;20091;-80
2022/05/01 11:33:10;;;;;;;6.13;3.47;;;20.70;61.80;;;;;;5050255;28;20906;-80
2022/05/01 11:35:55;;;;;;;4.63;3.45;;;21.30;61.40;;;;;;5050399;28;20033;-80
2022/05/01 11:38:30;;;;;;;5.82;3.35;;;22.50;59.00;;;;;;5051335;28;20033;-81
2022/05/01 11:40:57;;;;;;;6.87;3.57;;;23.50;59.60;;;;;;5051564;28;20045;-81
2022/05/01 11:43:23;;;;;;;5.80;3.58;;;23.20;55.60;;;;;;5050752;28;20051;-80
2022/05/01 11:45:50;;;;;;;4.65;3.17;;;23.40;57.10;;;;;;5051506;28;20037;-81
2022/05/01 11:48:18;;;;;;;5.00;2.95;;;23.40;58.10;;;;;;5050217;28;20045;-81
2022/05/01 11:50:49;;;;;;;5.10;3.10;;;23.90;57.60;;;;;;5050694;28;20450;-81
2022/05/01 11:53:23;;;;;;;4.50;3.08;;;22.80;55.40;;;;;;5052822;28;20037;-87
2022/05/01 12:04:23;;;;;;;4.72;3.08;;;24.10;53.10;;;;;;5033836;28;20407;-87
2022/05/01 12:06:48;;;;;;;4.22;3.05;;;24.30;53.30;;;;;;5042333;28;20483;-88
2022/05/01 12:09:18;;;;;;;3.95;3.00;;;24.80;56.30;;;;;;5010067;28;20048;-87
2022/05/01 12:11:47;;;;;;;3.88;2.95;;;25.20;53.80;;;;;;5029406;28;20042;-87
2022/05/01 12:14:14;;;;;;;5.07;3.00;;;23.50;51.40;;;;;;5028659;28;20049;-87
2022/05/01 12:16:40;;;;;;;6.10;2.50;;;23.40;53.00;;;;;;5043959;28;20690;-87
2022/05/01 12:19:07;;;;;;;3.58;2.40;;;24.30;54.00;;;;;;5044692;28;20399;-87
2022/05/01 12:21:34;;;;;;;4.82;2.80;;;24.90;53.60;;;;;;5058404;28;20045;-87
2022/05/01 12:24:04;;;;;;;4.15;2.75;;;24.30;52.20;;;;;;5028535;28;20048;-87
2022/05/01 12:26:34;;;;;;;4.35;2.90;;;24.30;52.30;;;;;;5045822;28;20075;-87
2022/05/01 12:29:00;;;;;;;4.13;2.47;;;24.70;52.60;;;;;;5040914;28;20505;-86
2022/05/01 12:31:27;;;;;;;4.03;2.75;;;24.20;52.10;;;;;;5040814;28;20051;-85
2022/05/01 12:33:53;;;;;;;4.30;2.60;;;23.70;52.20;;;;;;5044367;28;20063;-87
2022/05/01 12:36:25;;;;;;;4.63;3.00;;;23.40;53.00;;;;;;5011166;28;20029;-86
2022/05/01 12:39:01;;;;;;;4.40;2.80;;;21.80;51.80;;;;;;5023690;28;20052;-86
2022/05/01 12:44:11;;;;;;;4.55;2.30;;;21.70;54.70;;;;;;5044715;28;20094;-86
2022/05/01 12:46:39;;;;;;;8.32;2.80;;;21.20;53.30;;;;;;5028632;28;20494;-88
2022/05/01 12:49:05;;;;;;;3.42;2.28;;;21.30;54.70;;;;;;5026060;28;20033;-88
2022/05/01 12:51:36;;;;;;;3.40;2.10;;;21.80;54.20;;;;;;5011164;28;20043;-87
2022/05/01 12:54:10;;;;;;;4.47;2.35;;;22.20;54.10;;;;;;5040427;28;20040;-87
2022/05/01 12:56:36;;;;;;;3.67;2.30;;;22.20;53.30;;;;;;5043919;28;20120;-87
2022/05/01 12:59:31;;;;;;;4.70;3.05;;;22.20;54.80;;;;;;5008657;28;20140;-79
2022/05/01 13:01:59;;;;;;;4.47;3.05;;;22.70;55.50;;;;;;5022018;28;20045;-79
2022/05/01 13:04:26;;;;;;;4.47;3.00;;;22.90;56.30;;;;;;5027990;28;20147;-79
2022/05/01 13:06:55;;;;;;;6.75;3.08;;;22.90;56.20;;;;;;5034323;28;21646;-79
2022/05/01 13:09:21;;;;;;;3.58;2.33;;;22.80;56.70;;;;;;5010689;28;20045;-80
2022/05/01 13:12:01;;;;;;;3.17;2.20;;;22.00;52.30;;;;;;5015197;28;20120;-79
2022/05/01 13:14:32;;;;;;;4.13;2.35;;;22.40;55.20;;;;;;5031694;28;21445;-80
2022/05/01 13:17:17;;;;;;;4.40;2.58;;;22.40;55.00;;;;;;5036552;28;20450;-85
2022/05/01 13:19:44;;;;;;;4.22;2.92;;;22.10;53.90;;;;;;5039946;28;20048;-85
2022/05/01 13:22:10;;;;;;;4.68;3.00;;;22.20;55.90;;;;;;5008717;28;20033;-85
2022/05/01 13:24:39;;;;;;;4.93;3.00;;;22.30;56.30;;;;;;5045670;28;20029;-85
2022/05/01 13:27:10;;;;;;;6.60;2.90;;;21.90;56.30;;;;;;5044322;28;20048;-85
2022/05/01 13:29:38;;;;;;;4.72;2.78;;;21.90;57.10;;;;;;5047365;28;20044;-85